sensor_id;sensor_type;location;lat;lon;timestamp;P1;durP1;ratioP1;P2;durP2;ratioP2
6177;SDS011;3122;48.208;11.174;2022-11-02T00:02:30;6.93;;;4.80;;
6177;SDS011;3122;48.208;11.174;2022-11-02T00:07:30;8.00;;;5.27;;
6177;SDS011;3122;48.208;11.174;2022-11-02T00:12:31;6.90;;;5.10;;
6177;SDS011;3122;48.208;11.174;2022-11-02T00:17:31;5.13;;;4.23;;
6177;SDS011;3122;48.208;11.174;2022-11-02T00:22:32;7.57;;;4.73;;
6177;SDS011;3122;48.208;11.174;2022-11-02T00:27:33;5.60;;;4.47;;
6177;SDS011;3122;48.208;11.174;2022-11-02T00:32:34;5.80;;;4.43;;
6177;SDS011;3122;48.208;11.174;2022-11-02T00:37:35;5.43;;;4.20;;
6177;SDS011;3122;48.208;11.174;2022-11-02T00:42:36;6.63;;;4.10;;
6177;SDS011;3122;48.208;11.174;2022-11-02T00:47:37;6.23;;;4.00;;
6177;SDS011;3122;48.208;11.174;2022-11-02T00:52:38;5.70;;;3.93;;
6177;SDS011;3122;48.208;11.174;2022-11-02T00:57:39;4.93;;;4.30;;
6177;SDS011;3122;48.208;11.174;2022-11-02T01:02:40;6.10;;;4.07;;
6177;SDS011;3122;48.208;11.174;2022-11-02T01:07:41;5.97;;;4.00;;
6177;SDS011;3122;48.208;11.174;2022-11-02T01:12:42;4.03;;;3.73;;
6177;SDS011;3122;48.208;11.174;2022-11-02T01:17:43;4.80;;;3.97;;
6177;SDS011;3122;48.208;11.174;2022-11-02T01:22:43;8.33;;;3.03;;
6177;SDS011;3122;48.208;11.174;2022-11-02T01:27:44;4.63;;;3.73;;
6177;SDS011;3122;48.208;11.174;2022-11-02T01:32:45;4.90;;;3.40;;
6177;SDS011;3122;48.208;11.174;2022-11-02T01:37:45;4.23;;;3.73;;
6177;SDS011;3122;48.208;11.174;2022-11-02T01:42:46;5.60;;;3.70;;
6177;SDS011;3122;48.208;11.174;2022-11-02T01:47:46;3.80;;;3.50;;
6177;SDS011;3122;48.208;11.174;2022-11-02T01:52:47;5.47;;;3.63;;
6177;SDS011;3122;48.208;11.174;2022-11-02T01:57:51;6.67;;;3.17;;
6177;SDS011;3122;48.208;11.174;2022-11-02T02:02:58;4.40;;;2.90;;
6177;SDS011;3122;48.208;11.174;2022-11-02T02:08:04;4.87;;;3.70;;
6177;SDS011;3122;48.208;11.174;2022-11-02T02:13:07;5.00;;;3.67;;
6177;SDS011;3122;48.208;11.174;2022-11-02T02:18:16;3.60;;;3.30;;
6177;SDS011;3122;48.208;11.174;2022-11-02T02:28:41;4.87;;;3.27;;
6177;SDS011;3122;48.208;11.174;2022-11-02T02:33:45;4.10;;;3.23;;
6177;SDS011;3122;48.208;11.174;2022-11-02T02:38:55;7.13;;;3.77;;
6177;SDS011;3122;48.208;11.174;2022-11-02T02:44:19;4.30;;;3.90;;
6177;SDS011;3122;48.208;11.174;2022-11-02T02:49:27;8.27;;;3.60;;
6177;SDS011;3122;48.208;11.174;2022-11-02T02:54:41;5.43;;;4.10;;
6177;SDS011;3122;48.208;11.174;2022-11-02T02:59:45;9.23;;;5.00;;
6177;SDS011;3122;48.208;11.174;2022-11-02T03:04:50;7.53;;;5.10;;
6177;SDS011;3122;48.208;11.174;2022-11-02T03:09:53;8.40;;;5.67;;
6177;SDS011;3122;48.208;11.174;2022-11-02T03:30:28;10.33;;;5.17;;
6177;SDS011;3122;48.208;11.174;2022-11-02T03:35:44;7.30;;;5.50;;
6177;SDS011;3122;48.208;11.174;2022-11-02T03:40:51;8.83;;;6.40;;
6177;SDS011;3122;48.208;11.174;2022-11-02T03:45:56;8.40;;;6.17;;
6177;SDS011;3122;48.208;11.174;2022-11-02T03:51:02;8.30;;;5.67;;
6177;SDS011;3122;48.208;11.174;2022-11-02T03:56:08;8.67;;;5.10;;
6177;SDS011;3122;48.208;11.174;2022-11-02T04:01:15;10.50;;;6.10;;
6177;SDS011;3122;48.208;11.174;2022-11-02T04:06:18;10.47;;;6.27;;
6177;SDS011;3122;48.208;11.174;2022-11-02T04:11:19;8.30;;;5.70;;
6177;SDS011;3122;48.208;11.174;2022-11-02T04:16:38;8.17;;;5.90;;
6177;SDS011;3122;48.208;11.174;2022-11-02T04:21:39;8.97;;;6.90;;
6177;SDS011;3122;48.208;11.174;2022-11-02T04:27:00;11.47;;;6.13;;
6177;SDS011;3122;48.208;11.174;2022-11-02T04:32:01;10.30;;;7.60;;
6177;SDS011;3122;48.208;11.174;2022-11-02T04:37:01;11.87;;;7.57;;
6177;SDS011;3122;48.208;11.174;2022-11-02T04:42:22;14.47;;;7.63;;
6177;SDS011;3122;48.208;11.174;2022-11-02T04:47:22;14.47;;;7.30;;
6177;SDS011;3122;48.208;11.174;2022-11-02T04:52:23;12.50;;;7.40;;
6177;SDS011;3122;48.208;11.174;2022-11-02T04:57:23;10.23;;;7.13;;
6177;SDS011;3122;48.208;11.174;2022-11-02T05:02:24;12.73;;;7.57;;
6177;SDS011;3122;48.208;11.174;2022-11-02T05:07:25;11.20;;;7.90;;
6177;SDS011;3122;48.208;11.174;2022-11-02T05:12:25;10.90;;;7.00;;
6177;SDS011;3122;48.208;11.174;2022-11-02T05:17:26;9.97;;;6.37;;
6177;SDS011;3122;48.208;11.174;2022-11-02T05:22:26;11.00;;;6.70;;
6177;SDS011;3122;48.208;11.174;2022-11-02T05:27:27;10.23;;;6.80;;
6177;SDS011;3122;48.208;11.174;2022-11-02T05:32:27;11.97;;;6.80;;
6177;SDS011;3122;48.208;11.174;2022-11-02T05:37:28;11.97;;;6.33;;
6177;SDS011;3122;48.208;11.174;2022-11-02T05:42:29;7.77;;;6.20;;
6177;SDS011;3122;48.208;11.174;2022-11-02T05:47:29;12.40;;;6.97;;
6177;SDS011;3122;48.208;11.174;2022-11-02T05:52:30;10.53;;;6.33;;
6177;SDS011;3122;48.208;11.174;2022-11-02T05:57:30;9.97;;;6.77;;
6177;SDS011;3122;48.208;11.174;2022-11-02T06:02:34;12.13;;;6.60;;
6177;SDS011;3122;48.208;11.174;2022-11-02T06:07:34;13.30;;;7.07;;
6177;SDS011;3122;48.208;11.174;2022-11-02T06:12:35;9.37;;;6.30;;
6177;SDS011;3122;48.208;11.174;2022-11-02T06:17:39;7.37;;;6.20;;
6177;SDS011;3122;48.208;11.174;2022-11-02T06:22:40;10.97;;;6.80;;
6177;SDS011;3122;48.208;11.174;2022-11-02T06:27:41;10.10;;;6.00;;
6177;SDS011;3122;48.208;11.174;2022-11-02T06:32:49;10.40;;;7.00;;
6177;SDS011;3122;48.208;11.174;2022-11-02T06:37:51;11.47;;;6.80;;
6177;SDS011;3122;48.208;11.174;2022-11-02T06:42:55;9.13;;;6.63;;
6177;SDS011;3122;48.208;11.174;2022-11-02T06:47:56;12.43;;;7.50;;
6177;SDS011;3122;48.208;11.174;2022-11-02T06:52:56;13.20;;;7.73;;
6177;SDS011;3122;48.208;11.174;2022-11-02T06:57:57;11.33;;;7.10;;
6177;SDS011;3122;48.208;11.174;2022-11-02T07:03:01;13.10;;;7.23;;
6177;SDS011;3122;48.208;11.174;2022-11-02T07:08:03;19.43;;;7.93;;
6177;SDS011;3122;48.208;11.174;2022-11-02T07:13:04;12.83;;;7.93;;
6177;SDS011;3122;48.208;11.174;2022-11-02T07:18:05;10.93;;;6.97;;
6177;SDS011;3122;48.208;11.174;2022-11-02T07:23:07;18.43;;;10.40;;
6177;SDS011;3122;48.208;11.174;2022-11-02T07:28:08;14.23;;;6.30;;
6177;SDS011;3122;48.208;11.174;2022-11-02T07:33:09;9.90;;;6.80;;
6177;SDS011;3122;48.208;11.174;2022-11-02T07:38:09;7.50;;;6.07;;
6177;SDS011;3122;48.208;11.174;2022-11-02T07:43:11;14.37;;;9.80;;
6177;SDS011;3122;48.208;11.174;2022-11-02T07:48:11;15.13;;;11.23;;
6177;SDS011;3122;48.208;11.174;2022-11-02T07:53:12;28.23;;;9.40;;
6177;SDS011;3122;48.208;11.174;2022-11-02T07:58:12;16.17;;;8.17;;
6177;SDS011;3122;48.208;11.174;2022-11-02T08:03:13;10.50;;;6.37;;
6177;SDS011;3122;48.208;11.174;2022-11-02T08:08:20;6.97;;;5.40;;
6177;SDS011;3122;48.208;11.174;2022-11-02T08:13:22;7.20;;;3.97;;
6177;SDS011;3122;48.208;11.174;2022-11-02T08:18:25;7.30;;;4.00;;
6177;SDS011;3122;48.208;11.174;2022-11-02T08:23:27;7.70;;;3.97;;
6177;SDS011;3122;48.208;11.174;2022-11-02T08:28:29;4.43;;;3.60;;
6177;SDS011;3122;48.208;11.174;2022-11-02T08:33:31;7.50;;;3.80;;
6177;SDS011;3122;48.208;11.174;2022-11-02T08:38:32;6.20;;;3.13;;
6177;SDS011;3122;48.208;11.174;2022-11-02T08:43:32;7.60;;;3.47;;
6177;SDS011;3122;48.208;11.174;2022-11-02T08:48:33;5.63;;;3.30;;
6177;SDS011;3122;48.208;11.174;2022-11-02T08:53:35;8.13;;;3.40;;
6177;SDS011;3122;48.208;11.174;2022-11-02T08:58:35;7.93;;;2.90;;
6177;SDS011;3122;48.208;11.174;2022-11-02T09:03:36;8.67;;;2.93;;
6177;SDS011;3122;48.208;11.174;2022-11-02T09:08:36;5.83;;;2.57;;
6177;SDS011;3122;48.208;11.174;2022-11-02T09:13:37;5.20;;;2.30;;
6177;SDS011;3122;48.208;11.174;2022-11-02T09:18:38;5.53;;;2.50;;
6177;SDS011;3122;48.208;11.174;2022-11-02T09:23:39;4.33;;;1.90;;
6177;SDS011;3122;48.208;11.174;2022-11-02T09:28:39;6.00;;;3.20;;
6177;SDS011;3122;48.208;11.174;2022-11-02T09:33:40;5.37;;;2.00;;
6177;SDS011;3122;48.208;11.174;2022-11-02T09:38:40;10.23;;;2.60;;
6177;SDS011;3122;48.208;11.174;2022-11-02T09:44:00;7.33;;;2.40;;
6177;SDS011;3122;48.208;11.174;2022-11-02T09:49:22;5.40;;;2.20;;
6177;SDS011;3122;48.208;11.174;2022-11-02T09:55:00;5.17;;;2.60;;
6177;SDS011;3122;48.208;11.174;2022-11-02T09:59:55;5.17;;;1.90;;
6177;SDS011;3122;48.208;11.174;2022-11-02T10:10:14;4.70;;;2.10;;
6177;SDS011;3122;48.208;11.174;2022-11-02T10:15:22;2.30;;;1.80;;
6177;SDS011;3122;48.208;11.174;2022-11-02T10:20:37;5.43;;;2.10;;
6177;SDS011;3122;48.208;11.174;2022-11-02T10:25:50;8.80;;;2.43;;
6177;SDS011;3122;48.208;11.174;2022-11-02T10:30:51;6.27;;;2.63;;
6177;SDS011;3122;48.208;11.174;2022-11-02T10:41:18;6.33;;;2.17;;
6177;SDS011;3122;48.208;11.174;2022-11-02T10:51:45;4.73;;;1.90;;
6177;SDS011;3122;48.208;11.174;2022-11-02T10:56:45;5.70;;;1.70;;
6177;SDS011;3122;48.208;11.174;2022-11-02T11:06:53;4.87;;;1.53;;
6177;SDS011;3122;48.208;11.174;2022-11-02T11:12:02;3.13;;;1.80;;
6177;SDS011;3122;48.208;11.174;2022-11-02T11:17:12;2.53;;;1.30;;
6177;SDS011;3122;48.208;11.174;2022-11-02T11:22:31;4.60;;;1.63;;
6177;SDS011;3122;48.208;11.174;2022-11-02T11:32:46;3.00;;;1.77;;
6177;SDS011;3122;48.208;11.174;2022-11-02T11:37:48;5.43;;;2.00;;
6177;SDS011;3122;48.208;11.174;2022-11-02T11:42:55;5.73;;;2.20;;
6177;SDS011;3122;48.208;11.174;2022-11-02T11:47:59;4.03;;;1.60;;
6177;SDS011;3122;48.208;11.174;2022-11-02T11:53:06;2.67;;;1.23;;
6177;SDS011;3122;48.208;11.174;2022-11-02T12:03:26;1.67;;;1.37;;
6177;SDS011;3122;48.208;11.174;2022-11-02T12:19:24;4.57;;;1.70;;
6177;SDS011;3122;48.208;11.174;2022-11-02T12:51:17;3.07;;;1.20;;
6177;SDS011;3122;48.208;11.174;2022-11-02T12:56:52;3.10;;;1.40;;
6177;SDS011;3122;48.208;11.174;2022-11-02T13:01:55;4.10;;;1.30;;
6177;SDS011;3122;48.208;11.174;2022-11-02T13:07:02;4.47;;;1.37;;
6177;SDS011;3122;48.208;11.174;2022-11-02T13:12:14;3.93;;;1.57;;
6177;SDS011;3122;48.208;11.174;2022-11-02T13:17:25;3.93;;;2.40;;
6177;SDS011;3122;48.208;11.174;2022-11-02T13:22:42;3.07;;;1.33;;
6177;SDS011;3122;48.208;11.174;2022-11-02T13:27:51;4.80;;;1.80;;
6177;SDS011;3122;48.208;11.174;2022-11-02T13:33:00;2.40;;;1.40;;
6177;SDS011;3122;48.208;11.174;2022-11-02T13:38:05;2.87;;;1.53;;
6177;SDS011;3122;48.208;11.174;2022-11-02T13:53:26;5.20;;;1.57;;
6177;SDS011;3122;48.208;11.174;2022-11-02T13:58:34;6.40;;;1.90;;
6177;SDS011;3122;48.208;11.174;2022-11-02T14:03:49;5.90;;;2.70;;
6177;SDS011;3122;48.208;11.174;2022-11-02T14:08:58;4.43;;;1.70;;
6177;SDS011;3122;48.208;11.174;2022-11-02T14:14:05;6.73;;;1.87;;
6177;SDS011;3122;48.208;11.174;2022-11-02T14:19:18;2.80;;;1.90;;
6177;SDS011;3122;48.208;11.174;2022-11-02T14:40:03;4.30;;;2.27;;
6177;SDS011;3122;48.208;11.174;2022-11-02T14:45:28;9.70;;;2.30;;
6177;SDS011;3122;48.208;11.174;2022-11-02T14:51:04;3.87;;;1.60;;
6177;SDS011;3122;48.208;11.174;2022-11-02T14:56:13;7.17;;;1.90;;
6177;SDS011;3122;48.208;11.174;2022-11-02T15:01:13;4.27;;;2.10;;
6177;SDS011;3122;48.208;11.174;2022-11-02T15:06:24;7.67;;;2.93;;
6177;SDS011;3122;48.208;11.174;2022-11-02T15:16:50;2.93;;;2.10;;
6177;SDS011;3122;48.208;11.174;2022-11-02T15:21:51;4.03;;;2.20;;
6177;SDS011;3122;48.208;11.174;2022-11-02T15:27:12;2.83;;;2.37;;
6177;SDS011;3122;48.208;11.174;2022-11-02T15:32:14;7.83;;;2.53;;
6177;SDS011;3122;48.208;11.174;2022-11-02T15:37:23;4.93;;;3.53;;
6177;SDS011;3122;48.208;11.174;2022-11-02T15:42:33;6.47;;;3.97;;
6177;SDS011;3122;48.208;11.174;2022-11-02T16:04:09;9.57;;;6.87;;
6177;SDS011;3122;48.208;11.174;2022-11-02T16:14:36;7.43;;;4.07;;
6177;SDS011;3122;48.208;11.174;2022-11-02T16:19:37;8.40;;;4.37;;
6177;SDS011;3122;48.208;11.174;2022-11-02T16:24:41;8.57;;;3.90;;
6177;SDS011;3122;48.208;11.174;2022-11-02T16:29:46;12.30;;;3.10;;
6177;SDS011;3122;48.208;11.174;2022-11-02T16:34:49;5.40;;;3.60;;
6177;SDS011;3122;48.208;11.174;2022-11-02T16:39:50;11.93;;;6.67;;
6177;SDS011;3122;48.208;11.174;2022-11-02T16:44:58;8.40;;;3.93;;
6177;SDS011;3122;48.208;11.174;2022-11-02T16:50:00;8.07;;;3.87;;
6177;SDS011;3122;48.208;11.174;2022-11-02T16:55:01;9.57;;;4.40;;
6177;SDS011;3122;48.208;11.174;2022-11-02T17:00:33;5.70;;;4.93;;
6177;SDS011;3122;48.208;11.174;2022-11-02T17:05:34;9.40;;;5.53;;
6177;SDS011;3122;48.208;11.174;2022-11-02T17:10:40;9.10;;;5.87;;
6177;SDS011;3122;48.208;11.174;2022-11-02T17:15:44;8.27;;;3.40;;
6177;SDS011;3122;48.208;11.174;2022-11-02T17:20:48;3.70;;;2.30;;
6177;SDS011;3122;48.208;11.174;2022-11-02T17:31:34;4.43;;;3.37;;
6177;SDS011;3122;48.208;11.174;2022-11-02T17:36:43;12.50;;;3.70;;
6177;SDS011;3122;48.208;11.174;2022-11-02T17:41:48;9.10;;;4.33;;
6177;SDS011;3122;48.208;11.174;2022-11-02T17:47:17;10.40;;;5.20;;
6177;SDS011;3122;48.208;11.174;2022-11-02T17:52:18;9.20;;;4.50;;
6177;SDS011;3122;48.208;11.174;2022-11-02T17:57:18;9.93;;;5.20;;
6177;SDS011;3122;48.208;11.174;2022-11-02T18:02:20;11.47;;;6.13;;
6177;SDS011;3122;48.208;11.174;2022-11-02T18:07:20;14.77;;;6.70;;
6177;SDS011;3122;48.208;11.174;2022-11-02T18:12:21;12.13;;;8.90;;
6177;SDS011;3122;48.208;11.174;2022-11-02T18:17:21;18.03;;;9.33;;
6177;SDS011;3122;48.208;11.174;2022-11-02T18:22:22;12.53;;;7.93;;
6177;SDS011;3122;48.208;11.174;2022-11-02T18:27:22;17.93;;;11.40;;
6177;SDS011;3122;48.208;11.174;2022-11-02T18:32:23;9.40;;;4.80;;
6177;SDS011;3122;48.208;11.174;2022-11-02T18:37:24;10.83;;;6.13;;
6177;SDS011;3122;48.208;11.174;2022-11-02T18:42:25;16.57;;;8.10;;
6177;SDS011;3122;48.208;11.174;2022-11-02T18:47:25;17.70;;;10.13;;
6177;SDS011;3122;48.208;11.174;2022-11-02T18:52:26;17.73;;;9.90;;
6177;SDS011;3122;48.208;11.174;2022-11-02T18:57:28;19.50;;;11.63;;
6177;SDS011;3122;48.208;11.174;2022-11-02T19:02:29;22.03;;;13.37;;
6177;SDS011;3122;48.208;11.174;2022-11-02T19:07:30;18.90;;;13.13;;
6177;SDS011;3122;48.208;11.174;2022-11-02T19:12:49;21.17;;;15.17;;
6177;SDS011;3122;48.208;11.174;2022-11-02T19:17:49;21.53;;;14.27;;
6177;SDS011;3122;48.208;11.174;2022-11-02T19:22:53;30.20;;;18.53;;
6177;SDS011;3122;48.208;11.174;2022-11-02T19:27:54;31.83;;;20.90;;
6177;SDS011;3122;48.208;11.174;2022-11-02T19:32:55;33.03;;;18.10;;
6177;SDS011;3122;48.208;11.174;2022-11-02T19:37:56;29.97;;;18.97;;
6177;SDS011;3122;48.208;11.174;2022-11-02T19:42:57;32.67;;;19.27;;
6177;SDS011;3122;48.208;11.174;2022-11-02T19:48:00;36.60;;;20.47;;
6177;SDS011;3122;48.208;11.174;2022-11-02T19:53:00;27.70;;;18.20;;
6177;SDS011;3122;48.208;11.174;2022-11-02T19:58:01;24.03;;;17.03;;
6177;SDS011;3122;48.208;11.174;2022-11-02T20:03:02;22.30;;;16.00;;
6177;SDS011;3122;48.208;11.174;2022-11-02T20:08:02;12.43;;;8.63;;
6177;SDS011;3122;48.208;11.174;2022-11-02T20:13:03;9.43;;;6.30;;
6177;SDS011;3122;48.208;11.174;2022-11-02T20:18:04;6.73;;;5.00;;
6177;SDS011;3122;48.208;11.174;2022-11-02T20:23:05;5.17;;;3.87;;
6177;SDS011;3122;48.208;11.174;2022-11-02T20:28:05;9.93;;;6.87;;
6177;SDS011;3122;48.208;11.174;2022-11-02T20:33:06;8.20;;;6.50;;
6177;SDS011;3122;48.208;11.174;2022-11-02T20:38:06;10.30;;;6.03;;
6177;SDS011;3122;48.208;11.174;2022-11-02T20:43:07;7.33;;;5.37;;
6177;SDS011;3122;48.208;11.174;2022-11-02T20:48:08;10.50;;;5.40;;
6177;SDS011;3122;48.208;11.174;2022-11-02T20:53:08;5.17;;;4.37;;
6177;SDS011;3122;48.208;11.174;2022-11-02T20:58:09;6.30;;;3.77;;
6177;SDS011;3122;48.208;11.174;2022-11-02T21:03:09;5.53;;;4.17;;
6177;SDS011;3122;48.208;11.174;2022-11-02T21:08:10;9.00;;;6.27;;
6177;SDS011;3122;48.208;11.174;2022-11-02T21:13:11;11.67;;;7.23;;
6177;SDS011;3122;48.208;11.174;2022-11-02T21:18:31;9.20;;;6.90;;
6177;SDS011;3122;48.208;11.174;2022-11-02T21:23:32;10.30;;;6.07;;
6177;SDS011;3122;48.208;11.174;2022-11-02T21:28:33;17.30;;;7.43;;
6177;SDS011;3122;48.208;11.174;2022-11-02T21:33:35;12.37;;;7.20;;
6177;SDS011;3122;48.208;11.174;2022-11-02T21:38:36;9.97;;;6.87;;
6177;SDS011;3122;48.208;11.174;2022-11-02T21:43:37;10.53;;;6.83;;
6177;SDS011;3122;48.208;11.174;2022-11-02T21:48:38;10.23;;;7.33;;
6177;SDS011;3122;48.208;11.174;2022-11-02T21:53:39;12.80;;;6.90;;
6177;SDS011;3122;48.208;11.174;2022-11-02T21:58:42;10.07;;;6.90;;
6177;SDS011;3122;48.208;11.174;2022-11-02T22:03:43;10.97;;;7.53;;
6177;SDS011;3122;48.208;11.174;2022-11-02T22:08:44;13.43;;;7.50;;
6177;SDS011;3122;48.208;11.174;2022-11-02T22:13:45;10.60;;;6.87;;
6177;SDS011;3122;48.208;11.174;2022-11-02T22:18:46;13.37;;;7.00;;
6177;SDS011;3122;48.208;11.174;2022-11-02T22:23:48;9.80;;;7.20;;
6177;SDS011;3122;48.208;11.174;2022-11-02T22:28:49;6.50;;;5.90;;
6177;SDS011;3122;48.208;11.174;2022-11-02T22:33:52;7.00;;;6.20;;
6177;SDS011;3122;48.208;11.174;2022-11-02T22:38:55;7.33;;;5.60;;
6177;SDS011;3122;48.208;11.174;2022-11-02T22:44:00;7.60;;;6.27;;
6177;SDS011;3122;48.208;11.174;2022-11-02T22:49:02;7.00;;;5.53;;
6177;SDS011;3122;48.208;11.174;2022-11-02T22:54:04;6.23;;;5.63;;
6177;SDS011;3122;48.208;11.174;2022-11-02T22:59:06;7.27;;;5.33;;
6177;SDS011;3122;48.208;11.174;2022-11-02T23:04:09;7.30;;;5.93;;
6177;SDS011;3122;48.208;11.174;2022-11-02T23:09:10;8.57;;;5.73;;
6177;SDS011;3122;48.208;11.174;2022-11-02T23:14:12;6.47;;;5.57;;
6177;SDS011;3122;48.208;11.174;2022-11-02T23:19:15;7.50;;;5.87;;
6177;SDS011;3122;48.208;11.174;2022-11-02T23:24:28;9.27;;;5.93;;
6177;SDS011;3122;48.208;11.174;2022-11-02T23:29:47;7.30;;;5.53;;
6177;SDS011;3122;48.208;11.174;2022-11-02T23:35:06;11.23;;;7.10;;
6177;SDS011;3122;48.208;11.174;2022-11-02T23:40:25;8.57;;;6.50;;
6177;SDS011;3122;48.208;11.174;2022-11-02T23:45:26;10.90;;;6.43;;
6177;SDS011;3122;48.208;11.174;2022-11-02T23:50:28;7.63;;;5.57;;
6177;SDS011;3122;48.208;11.174;2022-11-02T23:55:49;10.37;;;5.70;;
